sensor_id;sensor_type;location;lat;lon;timestamp;temperature;humidity
3678;DHT22;1855;50.934;6.958;2022-11-13T00:02:02;8.60;91.00
3678;DHT22;1855;50.934;6.958;2022-11-13T00:04:29;8.60;91.10
3678;DHT22;1855;50.934;6.958;2022-11-13T00:06:56;8.60;91.10
3678;DHT22;1855;50.934;6.958;2022-11-13T00:09:22;8.50;91.10
3678;DHT22;1855;50.934;6.958;2022-11-13T00:11:49;8.50;91.10
3678;DHT22;1855;50.934;6.958;2022-11-13T00:14:17;8.50;91.20
3678;DHT22;1855;50.934;6.958;2022-11-13T00:16:44;8.40;91.20
3678;DHT22;1855;50.934;6.958;2022-11-13T00:19:11;8.40;91.30
3678;DHT22;1855;50.934;6.958;2022-11-13T00:21:38;8.40;91.30
3678;DHT22;1855;50.934;6.958;2022-11-13T00:24:05;8.40;91.40
3678;DHT22;1855;50.934;6.958;2022-11-13T00:26:32;8.40;91.40
3678;DHT22;1855;50.934;6.958;2022-11-13T00:29:00;8.40;91.50
3678;DHT22;1855;50.934;6.958;2022-11-13T00:31:29;8.40;91.50
3678;DHT22;1855;50.934;6.958;2022-11-13T00:33:57;8.40;91.60
3678;DHT22;1855;50.934;6.958;2022-11-13T00:36:25;8.30;91.60
3678;DHT22;1855;50.934;6.958;2022-11-13T00:38:53;8.30;91.60
3678;DHT22;1855;50.934;6.958;2022-11-13T00:41:20;8.30;91.50
3678;DHT22;1855;50.934;6.958;2022-11-13T00:43:47;8.40;91.60
3678;DHT22;1855;50.934;6.958;2022-11-13T00:46:13;8.30;91.40
3678;DHT22;1855;50.934;6.958;2022-11-13T00:48:42;8.30;91.40
3678;DHT22;1855;50.934;6.958;2022-11-13T00:51:08;8.30;91.40
3678;DHT22;1855;50.934;6.958;2022-11-13T00:53:35;8.30;91.40
3678;DHT22;1855;50.934;6.958;2022-11-13T00:56:02;8.30;91.60
3678;DHT22;1855;50.934;6.958;2022-11-13T00:58:29;8.30;91.60
3678;DHT22;1855;50.934;6.958;2022-11-13T01:01:03;8.20;91.60
3678;DHT22;1855;50.934;6.958;2022-11-13T01:03:30;8.20;91.60
3678;DHT22;1855;50.934;6.958;2022-11-13T01:05:58;8.20;91.60
3678;DHT22;1855;50.934;6.958;2022-11-13T01:08:25;8.20;91.60
3678;DHT22;1855;50.934;6.958;2022-11-13T01:10:51;8.20;91.60
3678;DHT22;1855;50.934;6.958;2022-11-13T01:13:18;8.20;91.60
3678;DHT22;1855;50.934;6.958;2022-11-13T01:15:45;8.20;91.70
3678;DHT22;1855;50.934;6.958;2022-11-13T01:18:12;8.20;91.70
3678;DHT22;1855;50.934;6.958;2022-11-13T01:20:39;8.20;91.60
3678;DHT22;1855;50.934;6.958;2022-11-13T01:23:07;8.10;91.70
3678;DHT22;1855;50.934;6.958;2022-11-13T01:25:34;8.10;91.80
3678;DHT22;1855;50.934;6.958;2022-11-13T01:28:01;8.10;91.90
3678;DHT22;1855;50.934;6.958;2022-11-13T01:30:28;8.10;92.00
3678;DHT22;1855;50.934;6.958;2022-11-13T01:32:55;8.20;91.90
3678;DHT22;1855;50.934;6.958;2022-11-13T01:35:21;8.20;92.00
3678;DHT22;1855;50.934;6.958;2022-11-13T01:37:48;8.20;92.00
3678;DHT22;1855;50.934;6.958;2022-11-13T01:40:17;8.20;92.00
3678;DHT22;1855;50.934;6.958;2022-11-13T01:42:43;8.10;92.00
3678;DHT22;1855;50.934;6.958;2022-11-13T01:48:33;8.10;92.00
3678;DHT22;1855;50.934;6.958;2022-11-13T01:51:03;8.10;92.00
3678;DHT22;1855;50.934;6.958;2022-11-13T01:53:34;8.10;92.10
3678;DHT22;1855;50.934;6.958;2022-11-13T01:56:02;8.00;92.10
3678;DHT22;1855;50.934;6.958;2022-11-13T01:58:29;8.00;92.20
3678;DHT22;1855;50.934;6.958;2022-11-13T02:00:56;8.00;92.30
3678;DHT22;1855;50.934;6.958;2022-11-13T02:03:23;8.00;92.30
3678;DHT22;1855;50.934;6.958;2022-11-13T02:05:50;8.00;92.30
3678;DHT22;1855;50.934;6.958;2022-11-13T02:08:17;8.00;92.40
3678;DHT22;1855;50.934;6.958;2022-11-13T02:10:43;8.00;92.40
3678;DHT22;1855;50.934;6.958;2022-11-13T02:13:12;8.00;92.50
3678;DHT22;1855;50.934;6.958;2022-11-13T02:15:40;7.90;92.50
3678;DHT22;1855;50.934;6.958;2022-11-13T02:18:08;7.90;92.60
3678;DHT22;1855;50.934;6.958;2022-11-13T02:20:39;7.90;92.70
3678;DHT22;1855;50.934;6.958;2022-11-13T02:23:15;7.90;92.70
3678;DHT22;1855;50.934;6.958;2022-11-13T02:25:44;7.90;92.80
3678;DHT22;1855;50.934;6.958;2022-11-13T02:28:13;7.80;92.70
3678;DHT22;1855;50.934;6.958;2022-11-13T02:30:40;7.90;92.60
3678;DHT22;1855;50.934;6.958;2022-11-13T02:33:21;7.80;92.70
3678;DHT22;1855;50.934;6.958;2022-11-13T02:35:49;7.80;92.60
3678;DHT22;1855;50.934;6.958;2022-11-13T02:38:15;7.80;92.70
3678;DHT22;1855;50.934;6.958;2022-11-13T02:40:44;7.80;92.70
3678;DHT22;1855;50.934;6.958;2022-11-13T02:43:10;7.70;92.70
3678;DHT22;1855;50.934;6.958;2022-11-13T02:45:37;7.80;92.90
3678;DHT22;1855;50.934;6.958;2022-11-13T02:48:05;7.70;92.80
3678;DHT22;1855;50.934;6.958;2022-11-13T02:50:33;7.70;92.80
3678;DHT22;1855;50.934;6.958;2022-11-13T02:53:00;7.70;92.80
3678;DHT22;1855;50.934;6.958;2022-11-13T02:55:27;7.70;92.80
3678;DHT22;1855;50.934;6.958;2022-11-13T02:57:55;7.60;92.80
3678;DHT22;1855;50.934;6.958;2022-11-13T03:00:23;7.70;92.70
3678;DHT22;1855;50.934;6.958;2022-11-13T03:02:49;7.60;92.70
3678;DHT22;1855;50.934;6.958;2022-11-13T03:05:16;7.60;92.80
3678;DHT22;1855;50.934;6.958;2022-11-13T03:07:43;7.60;92.90
3678;DHT22;1855;50.934;6.958;2022-11-13T03:10:10;7.50;92.90
3678;DHT22;1855;50.934;6.958;2022-11-13T03:12:37;7.50;93.00
3678;DHT22;1855;50.934;6.958;2022-11-13T03:15:07;7.50;93.10
3678;DHT22;1855;50.934;6.958;2022-11-13T03:17:34;7.50;93.10
3678;DHT22;1855;50.934;6.958;2022-11-13T03:20:01;7.50;93.10
3678;DHT22;1855;50.934;6.958;2022-11-13T03:22:28;7.40;93.20
3678;DHT22;1855;50.934;6.958;2022-11-13T03:24:55;7.40;93.30
3678;DHT22;1855;50.934;6.958;2022-11-13T03:27:22;7.40;93.50
3678;DHT22;1855;50.934;6.958;2022-11-13T03:29:49;7.30;93.50
3678;DHT22;1855;50.934;6.958;2022-11-13T03:32:17;7.30;93.50
3678;DHT22;1855;50.934;6.958;2022-11-13T03:34:44;7.30;93.50
3678;DHT22;1855;50.934;6.958;2022-11-13T03:37:11;7.30;93.50
3678;DHT22;1855;50.934;6.958;2022-11-13T03:39:37;7.30;93.60
3678;DHT22;1855;50.934;6.958;2022-11-13T03:42:04;7.30;93.60
3678;DHT22;1855;50.934;6.958;2022-11-13T03:44:31;7.30;93.50
3678;DHT22;1855;50.934;6.958;2022-11-13T03:46:58;7.30;93.40
3678;DHT22;1855;50.934;6.958;2022-11-13T03:49:26;7.30;93.40
3678;DHT22;1855;50.934;6.958;2022-11-13T03:51:53;7.30;93.50
3678;DHT22;1855;50.934;6.958;2022-11-13T03:54:19;7.30;93.40
3678;DHT22;1855;50.934;6.958;2022-11-13T03:56:46;7.30;93.30
3678;DHT22;1855;50.934;6.958;2022-11-13T03:59:13;7.20;93.30
3678;DHT22;1855;50.934;6.958;2022-11-13T04:01:39;7.20;93.40
3678;DHT22;1855;50.934;6.958;2022-11-13T04:04:06;7.20;93.30
3678;DHT22;1855;50.934;6.958;2022-11-13T04:06:35;7.20;93.20
3678;DHT22;1855;50.934;6.958;2022-11-13T04:09:02;7.20;93.20
3678;DHT22;1855;50.934;6.958;2022-11-13T04:11:29;7.10;93.20
3678;DHT22;1855;50.934;6.958;2022-11-13T04:13:56;7.10;93.10
3678;DHT22;1855;50.934;6.958;2022-11-13T04:16:22;7.20;93.00
3678;DHT22;1855;50.934;6.958;2022-11-13T04:18:49;7.20;92.60
3678;DHT22;1855;50.934;6.958;2022-11-13T04:21:16;7.20;92.50
3678;DHT22;1855;50.934;6.958;2022-11-13T04:23:44;7.20;92.40
3678;DHT22;1855;50.934;6.958;2022-11-13T04:26:11;7.20;92.20
3678;DHT22;1855;50.934;6.958;2022-11-13T04:28:37;7.20;91.80
3678;DHT22;1855;50.934;6.958;2022-11-13T04:31:04;7.30;91.60
3678;DHT22;1855;50.934;6.958;2022-11-13T04:33:31;7.30;91.50
3678;DHT22;1855;50.934;6.958;2022-11-13T04:35:58;7.30;91.30
3678;DHT22;1855;50.934;6.958;2022-11-13T04:38:24;7.40;91.10
3678;DHT22;1855;50.934;6.958;2022-11-13T04:40:52;7.40;90.90
3678;DHT22;1855;50.934;6.958;2022-11-13T04:43:39;7.40;90.90
3678;DHT22;1855;50.934;6.958;2022-11-13T04:46:05;7.30;90.70
3678;DHT22;1855;50.934;6.958;2022-11-13T04:48:32;7.30;90.50
3678;DHT22;1855;50.934;6.958;2022-11-13T04:50:59;7.30;90.40
3678;DHT22;1855;50.934;6.958;2022-11-13T04:53:26;7.30;90.60
3678;DHT22;1855;50.934;6.958;2022-11-13T04:55:54;7.30;90.60
3678;DHT22;1855;50.934;6.958;2022-11-13T04:58:21;7.20;90.80
3678;DHT22;1855;50.934;6.958;2022-11-13T05:00:47;7.20;91.00
3678;DHT22;1855;50.934;6.958;2022-11-13T05:03:14;7.20;91.00
3678;DHT22;1855;50.934;6.958;2022-11-13T05:05:41;7.20;91.20
3678;DHT22;1855;50.934;6.958;2022-11-13T05:08:07;7.20;91.20
3678;DHT22;1855;50.934;6.958;2022-11-13T05:10:34;7.10;91.20
3678;DHT22;1855;50.934;6.958;2022-11-13T05:13:02;7.10;91.30
3678;DHT22;1855;50.934;6.958;2022-11-13T05:15:29;7.00;91.30
3678;DHT22;1855;50.934;6.958;2022-11-13T05:17:56;7.00;91.50
3678;DHT22;1855;50.934;6.958;2022-11-13T05:20:23;6.90;91.40
3678;DHT22;1855;50.934;6.958;2022-11-13T05:22:50;6.90;91.60
3678;DHT22;1855;50.934;6.958;2022-11-13T05:25:16;6.80;91.60
3678;DHT22;1855;50.934;6.958;2022-11-13T05:27:43;6.80;91.60
3678;DHT22;1855;50.934;6.958;2022-11-13T05:30:11;6.80;91.70
3678;DHT22;1855;50.934;6.958;2022-11-13T05:32:38;6.80;91.80
3678;DHT22;1855;50.934;6.958;2022-11-13T05:35:05;6.80;91.90
3678;DHT22;1855;50.934;6.958;2022-11-13T05:37:32;6.80;91.90
3678;DHT22;1855;50.934;6.958;2022-11-13T05:39:58;6.80;92.20
3678;DHT22;1855;50.934;6.958;2022-11-13T05:42:25;6.80;91.70
3678;DHT22;1855;50.934;6.958;2022-11-13T05:44:52;6.80;91.70
3678;DHT22;1855;50.934;6.958;2022-11-13T05:47:20;6.80;91.70
3678;DHT22;1855;50.934;6.958;2022-11-13T05:49:47;6.80;91.50
3678;DHT22;1855;50.934;6.958;2022-11-13T05:52:13;6.80;91.40
3678;DHT22;1855;50.934;6.958;2022-11-13T05:54:40;6.80;91.30
3678;DHT22;1855;50.934;6.958;2022-11-13T05:57:07;6.80;91.30
3678;DHT22;1855;50.934;6.958;2022-11-13T05:59:35;6.80;91.20
3678;DHT22;1855;50.934;6.958;2022-11-13T06:02:02;6.80;91.20
3678;DHT22;1855;50.934;6.958;2022-11-13T06:04:30;6.80;90.90
3678;DHT22;1855;50.934;6.958;2022-11-13T06:06:57;6.80;90.80
3678;DHT22;1855;50.934;6.958;2022-11-13T06:09:24;6.70;90.80
3678;DHT22;1855;50.934;6.958;2022-11-13T06:11:51;6.70;90.70
3678;DHT22;1855;50.934;6.958;2022-11-13T06:14:17;6.70;90.70
3678;DHT22;1855;50.934;6.958;2022-11-13T06:16:44;6.70;90.70
3678;DHT22;1855;50.934;6.958;2022-11-13T06:19:11;6.70;90.60
3678;DHT22;1855;50.934;6.958;2022-11-13T06:21:40;6.70;90.50
3678;DHT22;1855;50.934;6.958;2022-11-13T06:24:08;6.70;90.50
3678;DHT22;1855;50.934;6.958;2022-11-13T06:26:36;6.70;90.30
3678;DHT22;1855;50.934;6.958;2022-11-13T06:29:05;6.70;90.10
3678;DHT22;1855;50.934;6.958;2022-11-13T06:31:34;6.70;90.00
3678;DHT22;1855;50.934;6.958;2022-11-13T06:34:02;6.70;89.90
3678;DHT22;1855;50.934;6.958;2022-11-13T06:36:31;6.70;89.80
3678;DHT22;1855;50.934;6.958;2022-11-13T06:39:00;6.70;89.80
3678;DHT22;1855;50.934;6.958;2022-11-13T06:41:28;6.70;89.60
3678;DHT22;1855;50.934;6.958;2022-11-13T06:43:56;6.70;89.30
3678;DHT22;1855;50.934;6.958;2022-11-13T06:46:25;6.70;88.40
3678;DHT22;1855;50.934;6.958;2022-11-13T06:48:52;6.70;87.80
3678;DHT22;1855;50.934;6.958;2022-11-13T06:51:22;6.70;87.40
3678;DHT22;1855;50.934;6.958;2022-11-13T06:53:49;6.60;86.80
3678;DHT22;1855;50.934;6.958;2022-11-13T06:56:18;6.60;86.70
3678;DHT22;1855;50.934;6.958;2022-11-13T06:58:45;6.60;86.80
3678;DHT22;1855;50.934;6.958;2022-11-13T07:01:14;6.60;86.50
3678;DHT22;1855;50.934;6.958;2022-11-13T07:03:41;6.60;86.10
3678;DHT22;1855;50.934;6.958;2022-11-13T07:06:09;6.60;85.70
3678;DHT22;1855;50.934;6.958;2022-11-13T07:08:38;6.60;85.90
3678;DHT22;1855;50.934;6.958;2022-11-13T07:11:05;6.60;85.80
3678;DHT22;1855;50.934;6.958;2022-11-13T07:13:36;6.60;85.90
3678;DHT22;1855;50.934;6.958;2022-11-13T07:16:04;6.60;86.00
3678;DHT22;1855;50.934;6.958;2022-11-13T07:18:31;6.60;86.50
3678;DHT22;1855;50.934;6.958;2022-11-13T07:21:03;6.60;86.50
3678;DHT22;1855;50.934;6.958;2022-11-13T07:23:30;6.60;86.30
3678;DHT22;1855;50.934;6.958;2022-11-13T07:25:57;6.70;86.00
3678;DHT22;1855;50.934;6.958;2022-11-13T07:28:24;6.70;85.30
3678;DHT22;1855;50.934;6.958;2022-11-13T07:30:52;6.70;84.50
3678;DHT22;1855;50.934;6.958;2022-11-13T07:33:19;6.80;84.30
3678;DHT22;1855;50.934;6.958;2022-11-13T07:35:46;6.90;82.90
3678;DHT22;1855;50.934;6.958;2022-11-13T07:38:12;6.90;82.80
3678;DHT22;1855;50.934;6.958;2022-11-13T07:40:39;7.00;82.20
3678;DHT22;1855;50.934;6.958;2022-11-13T07:43:07;7.10;82.30
3678;DHT22;1855;50.934;6.958;2022-11-13T07:45:33;7.30;81.70
3678;DHT22;1855;50.934;6.958;2022-11-13T07:48:02;7.40;81.30
3678;DHT22;1855;50.934;6.958;2022-11-13T07:50:31;7.50;81.20
3678;DHT22;1855;50.934;6.958;2022-11-13T07:53:00;7.70;81.00
3678;DHT22;1855;50.934;6.958;2022-11-13T07:55:28;7.70;79.40
3678;DHT22;1855;50.934;6.958;2022-11-13T07:57:56;7.90;79.60
3678;DHT22;1855;50.934;6.958;2022-11-13T08:00:23;8.00;79.20
3678;DHT22;1855;50.934;6.958;2022-11-13T08:02:50;8.20;78.60
3678;DHT22;1855;50.934;6.958;2022-11-13T08:05:18;8.40;77.20
3678;DHT22;1855;50.934;6.958;2022-11-13T08:07:46;8.60;76.20
3678;DHT22;1855;50.934;6.958;2022-11-13T08:10:13;8.80;75.20
3678;DHT22;1855;50.934;6.958;2022-11-13T08:12:40;9.00;74.90
3678;DHT22;1855;50.934;6.958;2022-11-13T08:15:07;9.30;73.90
3678;DHT22;1855;50.934;6.958;2022-11-13T08:17:34;9.50;72.10
3678;DHT22;1855;50.934;6.958;2022-11-13T08:20:01;9.80;70.50
3678;DHT22;1855;50.934;6.958;2022-11-13T08:22:30;10.00;69.20
3678;DHT22;1855;50.934;6.958;2022-11-13T08:24:57;10.20;67.50
3678;DHT22;1855;50.934;6.958;2022-11-13T08:27:24;10.30;67.00
3678;DHT22;1855;50.934;6.958;2022-11-13T08:29:51;10.40;66.40
3678;DHT22;1855;50.934;6.958;2022-11-13T08:32:18;10.50;66.10
3678;DHT22;1855;50.934;6.958;2022-11-13T08:34:47;10.70;65.80
3678;DHT22;1855;50.934;6.958;2022-11-13T08:37:13;10.80;65.50
3678;DHT22;1855;50.934;6.958;2022-11-13T08:39:41;11.00;65.10
3678;DHT22;1855;50.934;6.958;2022-11-13T08:42:08;11.20;64.80
3678;DHT22;1855;50.934;6.958;2022-11-13T08:44:35;11.40;63.10
3678;DHT22;1855;50.934;6.958;2022-11-13T08:47:02;11.60;61.80
3678;DHT22;1855;50.934;6.958;2022-11-13T08:49:29;11.70;60.60
3678;DHT22;1855;50.934;6.958;2022-11-13T08:51:56;11.90;59.40
3678;DHT22;1855;50.934;6.958;2022-11-13T08:54:23;12.10;59.40
3678;DHT22;1855;50.934;6.958;2022-11-13T08:56:51;12.20;58.60
3678;DHT22;1855;50.934;6.958;2022-11-13T08:59:18;12.20;57.90
3678;DHT22;1855;50.934;6.958;2022-11-13T09:01:45;12.20;58.20
3678;DHT22;1855;50.934;6.958;2022-11-13T09:04:11;12.10;58.20
3678;DHT22;1855;50.934;6.958;2022-11-13T09:06:38;12.10;58.20
3678;DHT22;1855;50.934;6.958;2022-11-13T09:09:05;12.30;58.50
3678;DHT22;1855;50.934;6.958;2022-11-13T09:11:32;12.50;56.90
3678;DHT22;1855;50.934;6.958;2022-11-13T09:14:01;12.80;56.90
3678;DHT22;1855;50.934;6.958;2022-11-13T09:16:27;12.90;56.40
3678;DHT22;1855;50.934;6.958;2022-11-13T09:18:54;13.10;56.80
3678;DHT22;1855;50.934;6.958;2022-11-13T09:21:21;13.40;55.90
3678;DHT22;1855;50.934;6.958;2022-11-13T09:23:48;13.50;54.30
3678;DHT22;1855;50.934;6.958;2022-11-13T09:26:15;13.60;53.50
3678;DHT22;1855;50.934;6.958;2022-11-13T09:28:42;13.70;51.90
3678;DHT22;1855;50.934;6.958;2022-11-13T09:31:10;13.80;51.90
3678;DHT22;1855;50.934;6.958;2022-11-13T09:33:37;13.80;51.90
3678;DHT22;1855;50.934;6.958;2022-11-13T09:36:09;13.80;51.30
3678;DHT22;1855;50.934;6.958;2022-11-13T09:38:36;13.80;52.20
3678;DHT22;1855;50.934;6.958;2022-11-13T09:41:07;14.10;51.90
3678;DHT22;1855;50.934;6.958;2022-11-13T09:43:38;14.40;50.80
3678;DHT22;1855;50.934;6.958;2022-11-13T09:46:13;14.60;50.00
3678;DHT22;1855;50.934;6.958;2022-11-13T09:48:45;14.70;49.20
3678;DHT22;1855;50.934;6.958;2022-11-13T09:51:15;14.60;49.50
3678;DHT22;1855;50.934;6.958;2022-11-13T09:53:44;14.70;49.60
3678;DHT22;1855;50.934;6.958;2022-11-13T09:56:32;14.90;49.30
3678;DHT22;1855;50.934;6.958;2022-11-13T09:59:03;14.90;48.30
3678;DHT22;1855;50.934;6.958;2022-11-13T10:01:44;15.00;47.80
3678;DHT22;1855;50.934;6.958;2022-11-13T10:04:15;15.00;47.90
3678;DHT22;1855;50.934;6.958;2022-11-13T10:09:48;15.10;48.70
3678;DHT22;1855;50.934;6.958;2022-11-13T10:12:18;15.20;47.40
3678;DHT22;1855;50.934;6.958;2022-11-13T10:14:47;15.50;46.80
3678;DHT22;1855;50.934;6.958;2022-11-13T10:17:21;15.70;45.80
3678;DHT22;1855;50.934;6.958;2022-11-13T10:19:55;15.70;46.20
3678;DHT22;1855;50.934;6.958;2022-11-13T10:22:29;15.70;46.10
3678;DHT22;1855;50.934;6.958;2022-11-13T10:25:03;15.80;45.80
3678;DHT22;1855;50.934;6.958;2022-11-13T10:27:30;15.90;45.60
3678;DHT22;1855;50.934;6.958;2022-11-13T10:29:57;16.10;44.90
3678;DHT22;1855;50.934;6.958;2022-11-13T10:32:26;16.20;44.40
3678;DHT22;1855;50.934;6.958;2022-11-13T10:34:59;16.30;44.00
3678;DHT22;1855;50.934;6.958;2022-11-13T10:37:33;16.40;43.60
3678;DHT22;1855;50.934;6.958;2022-11-13T10:40:03;16.50;43.20
3678;DHT22;1855;50.934;6.958;2022-11-13T10:42:36;16.60;42.50
3678;DHT22;1855;50.934;6.958;2022-11-13T10:45:03;16.60;42.40
3678;DHT22;1855;50.934;6.958;2022-11-13T10:47:32;16.60;42.50
3678;DHT22;1855;50.934;6.958;2022-11-13T10:50:08;17.00;41.90
3678;DHT22;1855;50.934;6.958;2022-11-13T10:52:43;17.20;41.60
3678;DHT22;1855;50.934;6.958;2022-11-13T10:55:19;17.50;41.00
3678;DHT22;1855;50.934;6.958;2022-11-13T10:57:54;17.60;40.00
3678;DHT22;1855;50.934;6.958;2022-11-13T11:00:25;17.70;40.10
3678;DHT22;1855;50.934;6.958;2022-11-13T11:02:53;17.70;39.50
3678;DHT22;1855;50.934;6.958;2022-11-13T11:05:22;17.80;39.50
3678;DHT22;1855;50.934;6.958;2022-11-13T11:07:49;17.70;39.10
3678;DHT22;1855;50.934;6.958;2022-11-13T11:10:29;17.70;38.70
3678;DHT22;1855;50.934;6.958;2022-11-13T11:12:59;17.60;38.90
3678;DHT22;1855;50.934;6.958;2022-11-13T11:15:34;17.50;39.30
3678;DHT22;1855;50.934;6.958;2022-11-13T11:18:06;17.40;39.10
3678;DHT22;1855;50.934;6.958;2022-11-13T11:20:43;17.20;39.80
3678;DHT22;1855;50.934;6.958;2022-11-13T11:23:28;17.10;39.20
3678;DHT22;1855;50.934;6.958;2022-11-13T11:25:59;17.00;39.80
3678;DHT22;1855;50.934;6.958;2022-11-13T11:28:30;17.00;40.00
3678;DHT22;1855;50.934;6.958;2022-11-13T11:31:04;17.00;39.70
3678;DHT22;1855;50.934;6.958;2022-11-13T11:33:49;17.20;39.50
3678;DHT22;1855;50.934;6.958;2022-11-13T11:36:24;17.40;39.50
3678;DHT22;1855;50.934;6.958;2022-11-13T11:38:58;17.80;39.30
3678;DHT22;1855;50.934;6.958;2022-11-13T11:41:29;18.00;39.00
3678;DHT22;1855;50.934;6.958;2022-11-13T11:44:03;18.20;39.00
3678;DHT22;1855;50.934;6.958;2022-11-13T11:46:34;18.30;38.30
3678;DHT22;1855;50.934;6.958;2022-11-13T11:49:03;18.40;38.80
3678;DHT22;1855;50.934;6.958;2022-11-13T11:51:33;18.70;38.50
3678;DHT22;1855;50.934;6.958;2022-11-13T11:54:11;19.10;37.80
3678;DHT22;1855;50.934;6.958;2022-11-13T11:56:45;19.50;36.30
3678;DHT22;1855;50.934;6.958;2022-11-13T12:02:43;19.70;36.10
3678;DHT22;1855;50.934;6.958;2022-11-13T12:05:21;19.90;35.70
3678;DHT22;1855;50.934;6.958;2022-11-13T12:07:58;20.00;34.90
3678;DHT22;1855;50.934;6.958;2022-11-13T12:10:39;20.00;34.30
3678;DHT22;1855;50.934;6.958;2022-11-13T12:13:24;20.20;33.70
3678;DHT22;1855;50.934;6.958;2022-11-13T12:15:59;20.20;33.80
3678;DHT22;1855;50.934;6.958;2022-11-13T12:18:35;20.50;33.10
3678;DHT22;1855;50.934;6.958;2022-11-13T12:21:16;20.80;32.80
3678;DHT22;1855;50.934;6.958;2022-11-13T12:24:02;21.20;31.90
3678;DHT22;1855;50.934;6.958;2022-11-13T12:26:35;21.50;31.50
3678;DHT22;1855;50.934;6.958;2022-11-13T12:29:12;21.70;31.20
3678;DHT22;1855;50.934;6.958;2022-11-13T12:34:35;21.90;30.70
3678;DHT22;1855;50.934;6.958;2022-11-13T12:37:10;22.20;30.20
3678;DHT22;1855;50.934;6.958;2022-11-13T12:39:43;22.60;30.10
3678;DHT22;1855;50.934;6.958;2022-11-13T12:42:19;23.00;29.60
3678;DHT22;1855;50.934;6.958;2022-11-13T12:44:53;23.30;28.50
3678;DHT22;1855;50.934;6.958;2022-11-13T12:47:25;23.60;28.30
3678;DHT22;1855;50.934;6.958;2022-11-13T12:49:59;24.00;28.10
3678;DHT22;1855;50.934;6.958;2022-11-13T12:52:28;24.30;28.10
3678;DHT22;1855;50.934;6.958;2022-11-13T12:55:06;24.60;27.40
3678;DHT22;1855;50.934;6.958;2022-11-13T12:57:33;24.50;27.30
3678;DHT22;1855;50.934;6.958;2022-11-13T13:00:19;24.40;26.50
3678;DHT22;1855;50.934;6.958;2022-11-13T13:02:54;23.90;27.70
3678;DHT22;1855;50.934;6.958;2022-11-13T13:05:32;24.10;26.90
3678;DHT22;1855;50.934;6.958;2022-11-13T13:08:16;24.20;26.80
3678;DHT22;1855;50.934;6.958;2022-11-13T13:11:06;24.10;27.00
3678;DHT22;1855;50.934;6.958;2022-11-13T13:13:42;23.90;27.30
3678;DHT22;1855;50.934;6.958;2022-11-13T13:16:10;23.70;27.40
3678;DHT22;1855;50.934;6.958;2022-11-13T13:18:38;23.60;27.90
3678;DHT22;1855;50.934;6.958;2022-11-13T13:21:08;23.60;28.50
3678;DHT22;1855;50.934;6.958;2022-11-13T13:23:39;23.60;28.30
3678;DHT22;1855;50.934;6.958;2022-11-13T13:26:14;23.50;28.10
3678;DHT22;1855;50.934;6.958;2022-11-13T13:28:43;23.10;28.40
3678;DHT22;1855;50.934;6.958;2022-11-13T13:31:25;22.70;28.70
3678;DHT22;1855;50.934;6.958;2022-11-13T13:34:02;22.40;29.50
3678;DHT22;1855;50.934;6.958;2022-11-13T13:36:37;22.10;29.70
3678;DHT22;1855;50.934;6.958;2022-11-13T13:39:19;21.70;30.00
3678;DHT22;1855;50.934;6.958;2022-11-13T13:41:58;21.50;30.60
3678;DHT22;1855;50.934;6.958;2022-11-13T13:44:47;21.30;30.50
3678;DHT22;1855;50.934;6.958;2022-11-13T13:47:22;21.30;31.50
3678;DHT22;1855;50.934;6.958;2022-11-13T13:49:51;21.20;31.80
3678;DHT22;1855;50.934;6.958;2022-11-13T13:52:22;21.10;31.30
3678;DHT22;1855;50.934;6.958;2022-11-13T13:54:51;21.10;31.60
3678;DHT22;1855;50.934;6.958;2022-11-13T13:57:18;21.10;31.30
3678;DHT22;1855;50.934;6.958;2022-11-13T13:59:46;21.10;30.90
3678;DHT22;1855;50.934;6.958;2022-11-13T14:02:14;20.90;31.10
3678;DHT22;1855;50.934;6.958;2022-11-13T14:04:43;20.80;31.10
3678;DHT22;1855;50.934;6.958;2022-11-13T14:07:20;20.40;31.50
3678;DHT22;1855;50.934;6.958;2022-11-13T14:09:47;20.10;32.00
3678;DHT22;1855;50.934;6.958;2022-11-13T14:12:19;19.70;32.80
3678;DHT22;1855;50.934;6.958;2022-11-13T14:14:46;19.30;33.60
3678;DHT22;1855;50.934;6.958;2022-11-13T14:17:22;18.90;34.30
3678;DHT22;1855;50.934;6.958;2022-11-13T14:19:50;18.70;35.20
3678;DHT22;1855;50.934;6.958;2022-11-13T14:22:17;18.40;35.10
3678;DHT22;1855;50.934;6.958;2022-11-13T14:24:46;18.30;35.80
3678;DHT22;1855;50.934;6.958;2022-11-13T14:27:20;18.20;36.60
3678;DHT22;1855;50.934;6.958;2022-11-13T14:29:49;18.10;37.10
3678;DHT22;1855;50.934;6.958;2022-11-13T14:32:19;17.90;37.80
3678;DHT22;1855;50.934;6.958;2022-11-13T14:34:48;17.80;37.50
3678;DHT22;1855;50.934;6.958;2022-11-13T14:37:23;17.70;38.20
3678;DHT22;1855;50.934;6.958;2022-11-13T14:39:51;17.70;38.60
3678;DHT22;1855;50.934;6.958;2022-11-13T14:42:25;17.70;38.60
3678;DHT22;1855;50.934;6.958;2022-11-13T14:44:52;17.80;38.20
3678;DHT22;1855;50.934;6.958;2022-11-13T14:47:21;17.80;38.90
3678;DHT22;1855;50.934;6.958;2022-11-13T14:49:49;17.80;38.90
3678;DHT22;1855;50.934;6.958;2022-11-13T14:52:20;17.80;38.50
3678;DHT22;1855;50.934;6.958;2022-11-13T14:54:47;17.80;38.50
3678;DHT22;1855;50.934;6.958;2022-11-13T14:57:14;17.80;39.10
3678;DHT22;1855;50.934;6.958;2022-11-13T14:59:42;17.70;39.70
3678;DHT22;1855;50.934;6.958;2022-11-13T15:02:10;17.60;40.10
3678;DHT22;1855;50.934;6.958;2022-11-13T15:04:37;17.40;39.70
3678;DHT22;1855;50.934;6.958;2022-11-13T15:07:20;17.20;40.20
3678;DHT22;1855;50.934;6.958;2022-11-13T15:09:47;17.10;41.30
3678;DHT22;1855;50.934;6.958;2022-11-13T15:12:14;16.90;41.30
3678;DHT22;1855;50.934;6.958;2022-11-13T15:14:43;16.80;41.70
3678;DHT22;1855;50.934;6.958;2022-11-13T15:17:13;16.70;42.50
3678;DHT22;1855;50.934;6.958;2022-11-13T15:19:40;16.70;43.60
3678;DHT22;1855;50.934;6.958;2022-11-13T15:22:08;16.60;43.00
3678;DHT22;1855;50.934;6.958;2022-11-13T15:24:36;16.50;43.40
3678;DHT22;1855;50.934;6.958;2022-11-13T15:27:03;16.40;43.80
3678;DHT22;1855;50.934;6.958;2022-11-13T15:29:30;16.30;44.10
3678;DHT22;1855;50.934;6.958;2022-11-13T15:31:59;16.20;43.90
3678;DHT22;1855;50.934;6.958;2022-11-13T15:34:26;16.10;44.50
3678;DHT22;1855;50.934;6.958;2022-11-13T15:36:53;16.00;44.20
3678;DHT22;1855;50.934;6.958;2022-11-13T15:39:20;15.90;45.00
3678;DHT22;1855;50.934;6.958;2022-11-13T15:41:46;15.80;45.30
3678;DHT22;1855;50.934;6.958;2022-11-13T15:44:14;15.70;45.30
3678;DHT22;1855;50.934;6.958;2022-11-13T15:46:41;15.60;46.90
3678;DHT22;1855;50.934;6.958;2022-11-13T15:49:09;15.50;46.00
3678;DHT22;1855;50.934;6.958;2022-11-13T15:51:38;15.40;46.50
3678;DHT22;1855;50.934;6.958;2022-11-13T15:54:13;15.30;46.40
3678;DHT22;1855;50.934;6.958;2022-11-13T15:56:42;15.20;47.10
3678;DHT22;1855;50.934;6.958;2022-11-13T15:59:10;15.20;47.30
3678;DHT22;1855;50.934;6.958;2022-11-13T16:01:38;15.20;47.70
3678;DHT22;1855;50.934;6.958;2022-11-13T16:04:05;15.10;48.20
3678;DHT22;1855;50.934;6.958;2022-11-13T16:06:34;14.90;48.40
3678;DHT22;1855;50.934;6.958;2022-11-13T16:09:02;14.80;48.70
3678;DHT22;1855;50.934;6.958;2022-11-13T16:11:30;14.70;49.20
3678;DHT22;1855;50.934;6.958;2022-11-13T16:13:57;14.60;49.30
3678;DHT22;1855;50.934;6.958;2022-11-13T16:16:27;14.60;49.60
3678;DHT22;1855;50.934;6.958;2022-11-13T16:18:55;14.50;50.10
3678;DHT22;1855;50.934;6.958;2022-11-13T16:21:22;14.50;49.60
3678;DHT22;1855;50.934;6.958;2022-11-13T16:23:50;14.50;50.00
3678;DHT22;1855;50.934;6.958;2022-11-13T16:26:19;14.50;50.30
3678;DHT22;1855;50.934;6.958;2022-11-13T16:28:46;14.50;49.70
3678;DHT22;1855;50.934;6.958;2022-11-13T16:31:13;14.50;49.70
3678;DHT22;1855;50.934;6.958;2022-11-13T16:33:40;14.50;49.30
3678;DHT22;1855;50.934;6.958;2022-11-13T16:36:12;14.50;50.10